createdAt,value
2023-02-11T00:01:28.885Z,57.30
2023-02-11T00:03:58.278Z,56.90
2023-02-11T00:06:28.154Z,41.20
2023-02-11T00:08:56.793Z,39.03
2023-02-11T00:11:30.277Z,27.77
2023-02-11T00:13:59.736Z,26.43
2023-02-11T00:16:28.227Z,24.87
2023-02-11T00:18:56.245Z,26.00
2023-02-11T00:21:25.940Z,20.90
2023-02-11T00:23:55.042Z,25.17
2023-02-11T00:26:30.226Z,24.90
2023-02-11T00:28:58.159Z,25.47
2023-02-11T00:31:26.740Z,29.63
2023-02-11T00:33:55.570Z,26.37
2023-02-11T00:36:29.098Z,22.47
2023-02-11T00:38:58.416Z,21.37
2023-02-11T00:41:26.461Z,23.80
2023-02-11T00:43:54.033Z,29.00
2023-02-11T00:46:22.742Z,23.30
2023-02-11T00:48:51.951Z,20.13
2023-02-11T00:51:22.036Z,19.87
2023-02-11T00:53:49.542Z,22.57
2023-02-11T00:56:17.605Z,18.50
2023-02-11T00:58:45.097Z,22.97
2023-02-11T01:01:16.059Z,23.93
2023-02-11T01:03:43.851Z,24.77
2023-02-11T01:06:11.967Z,23.60
2023-02-11T01:08:40.484Z,28.83
2023-02-11T01:11:16.413Z,23.50
2023-02-11T01:13:46.761Z,25.63
2023-02-11T01:16:15.419Z,23.07
2023-02-11T01:18:44.494Z,36.40
2023-02-11T01:21:12.462Z,28.30
2023-02-11T01:23:40.011Z,31.00
2023-02-11T01:26:07.539Z,34.37
2023-02-11T01:28:35.180Z,32.57
2023-02-11T01:31:04.301Z,30.33
2023-02-11T01:33:36.210Z,29.87
2023-02-11T01:36:06.134Z,29.63
2023-02-11T01:38:34.793Z,31.70
2023-02-11T01:41:07.405Z,34.77
2023-02-11T01:43:42.919Z,31.67
2023-02-11T01:46:36.913Z,40.37
2023-02-11T01:49:19.214Z,37.50
2023-02-11T01:51:56.459Z,33.50
2023-02-11T01:54:47.469Z,41.63
2023-02-11T01:57:27.633Z,36.90
2023-02-11T02:00:27.172Z,36.17
2023-02-11T02:03:05.375Z,35.07
2023-02-11T02:06:08.303Z,36.93
2023-02-11T02:08:50.569Z,37.80
2023-02-11T02:11:18.215Z,34.70
2023-02-11T02:13:45.855Z,43.10
2023-02-11T02:16:17.618Z,54.20
2023-02-11T02:19:12.459Z,63.80
2023-02-11T02:22:14.120Z,83.00
2023-02-11T02:24:56.585Z,78.93
2023-02-11T02:27:47.471Z,70.70
2023-02-11T02:30:32.943Z,72.17
2023-02-11T02:33:37.857Z,74.17
2023-02-11T02:36:34.879Z,62.57
2023-02-11T02:39:14.911Z,53.57
2023-02-11T02:41:43.973Z,42.77
2023-02-11T02:44:11.545Z,46.17
2023-02-11T02:46:39.179Z,45.50
2023-02-11T02:49:13.586Z,38.60
2023-02-11T02:52:04.536Z,40.53
2023-02-11T02:55:35.977Z,40.57
2023-02-11T02:58:36.060Z,44.13
2023-02-11T03:01:14.173Z,42.40
2023-02-11T03:04:21.013Z,59.40
2023-02-11T03:07:03.332Z,63.83
2023-02-11T03:10:06.590Z,63.43
2023-02-11T03:12:36.598Z,59.10
2023-02-11T03:15:07.898Z,60.70
2023-02-11T03:17:39.711Z,53.07
2023-02-11T03:20:11.507Z,51.60
2023-02-11T03:23:04.591Z,53.67
2023-02-11T03:25:39.537Z,57.43
2023-02-11T03:28:35.522Z,54.60
2023-02-11T03:31:10.591Z,58.47
2023-02-11T03:33:51.921Z,65.00
2023-02-11T03:36:48.292Z,54.47
2023-02-11T03:39:23.044Z,53.63
2023-02-11T03:41:52.252Z,48.47
2023-02-11T03:44:22.264Z,51.77
2023-02-11T03:46:52.066Z,51.63
2023-02-11T03:49:22.663Z,45.50
2023-02-11T03:51:53.880Z,53.17
2023-02-11T03:54:29.588Z,49.93
2023-02-11T03:57:01.213Z,46.73
2023-02-11T03:59:29.658Z,61.13
2023-02-11T04:01:59.564Z,57.17
2023-02-11T04:04:27.212Z,61.60
2023-02-11T04:06:54.697Z,59.77
2023-02-11T04:09:22.170Z,53.57
2023-02-11T04:11:49.579Z,62.90
2023-02-11T04:14:17.081Z,60.20
2023-02-11T04:16:44.553Z,61.50
2023-02-11T04:19:12.096Z,72.87
2023-02-11T04:21:39.543Z,79.70
2023-02-11T04:24:07.054Z,73.67
2023-02-11T04:26:34.464Z,107.70
2023-02-11T04:29:01.882Z,97.93
2023-02-11T04:31:29.516Z,100.90
2023-02-11T04:33:57.649Z,115.67
2023-02-11T04:36:25.115Z,108.63
2023-02-11T04:38:52.488Z,85.67
2023-02-11T04:41:20.058Z,86.63
2023-02-11T04:43:47.612Z,87.20
2023-02-11T04:46:15.134Z,88.57
2023-02-11T04:48:42.699Z,105.80
2023-02-11T04:51:10.315Z,94.87
2023-02-11T04:53:37.886Z,96.43
2023-02-11T04:56:05.711Z,119.10
2023-02-11T04:58:33.191Z,75.17
2023-02-11T05:01:12.875Z,57.27
2023-02-11T05:03:40.591Z,61.27
2023-02-11T05:06:09.499Z,64.43
2023-02-11T05:08:37.218Z,64.53
2023-02-11T05:11:05.150Z,71.17
2023-02-11T05:13:33.141Z,71.03
2023-02-11T05:16:00.617Z,68.90
2023-02-11T05:18:28.071Z,74.13
2023-02-11T05:20:55.651Z,74.43
2023-02-11T05:23:26.106Z,72.63
2023-02-11T05:25:53.570Z,78.60
2023-02-11T05:28:21.148Z,68.30
2023-02-11T05:30:48.655Z,70.43
2023-02-11T05:33:16.104Z,60.37
2023-02-11T05:35:44.254Z,79.73
2023-02-11T05:38:11.812Z,70.93
2023-02-11T05:40:39.550Z,62.17
2023-02-11T05:43:07.002Z,49.53
2023-02-11T05:45:34.786Z,48.33
2023-02-11T05:48:02.265Z,79.17
2023-02-11T05:50:29.782Z,66.60
2023-02-11T05:52:57.237Z,45.53
2023-02-11T05:55:24.913Z,30.70
2023-02-11T05:57:52.381Z,45.47
2023-02-11T06:00:20.146Z,32.87
2023-02-11T06:02:47.643Z,30.63
2023-02-11T06:05:15.206Z,32.00
2023-02-11T06:07:42.635Z,44.93
2023-02-11T06:10:11.052Z,81.63
2023-02-11T06:12:39.665Z,81.00
2023-02-11T06:15:08.788Z,45.83
2023-02-11T06:17:37.454Z,47.70
2023-02-11T06:20:08.668Z,39.27
2023-02-11T06:22:36.121Z,45.03
2023-02-11T06:25:04.336Z,38.63
2023-02-11T06:27:31.977Z,39.03
2023-02-11T06:29:59.503Z,34.43
2023-02-11T06:32:45.648Z,27.03
2023-02-11T06:35:15.194Z,35.57
2023-02-11T06:37:43.198Z,40.87
2023-02-11T06:40:12.305Z,38.53
2023-02-11T06:42:39.941Z,26.70
2023-02-11T06:45:10.962Z,54.60
2023-02-11T06:47:39.820Z,71.10
2023-02-11T06:50:12.805Z,28.67
2023-02-11T06:52:41.940Z,36.73
2023-02-11T06:55:10.932Z,35.03
2023-02-11T06:57:38.434Z,32.33
2023-02-11T07:00:07.058Z,44.90
2023-02-11T07:02:34.965Z,41.53
2023-02-11T07:05:02.565Z,57.33
2023-02-11T07:07:34.073Z,45.90
2023-02-11T07:10:05.933Z,35.93
2023-02-11T07:12:34.756Z,39.10
2023-02-11T07:15:06.602Z,49.70
2023-02-11T07:17:36.146Z,45.87
2023-02-11T07:20:04.781Z,42.47
2023-02-11T07:22:32.487Z,97.87
2023-02-11T07:25:00.518Z,41.80
2023-02-11T07:27:28.012Z,27.83
2023-02-11T07:29:55.515Z,36.40
2023-02-11T07:32:23.117Z,22.30
2023-02-11T07:34:50.599Z,27.60
2023-02-11T07:37:18.126Z,29.10
2023-02-11T07:39:45.898Z,29.90
2023-02-11T07:42:13.651Z,26.83
2023-02-11T07:44:41.302Z,28.70
2023-02-11T07:47:08.885Z,45.30
2023-02-11T07:49:36.391Z,21.93
2023-02-11T07:52:04.114Z,21.20
2023-02-11T07:54:34.180Z,28.20
2023-02-11T07:57:01.636Z,34.90
2023-02-11T07:59:31.134Z,31.27
2023-02-11T08:01:58.678Z,41.97
2023-02-11T08:04:26.232Z,41.90
2023-02-11T08:06:58.871Z,31.97
2023-02-11T08:09:26.558Z,62.00
2023-02-11T08:11:55.257Z,25.97
2023-02-11T08:14:27.274Z,23.17
2023-02-11T08:16:54.806Z,34.37
2023-02-11T08:19:22.335Z,40.73
2023-02-11T08:21:51.301Z,29.23
2023-02-11T08:24:18.788Z,30.37
2023-02-11T08:26:46.337Z,47.97
2023-02-11T08:29:16.252Z,34.10
2023-02-11T08:31:47.141Z,23.57
2023-02-11T08:34:19.045Z,23.07
2023-02-11T08:36:48.463Z,17.00
2023-02-11T08:39:22.819Z,20.73
2023-02-11T08:41:54.660Z,21.30
2023-02-11T08:44:23.855Z,16.87
2023-02-11T08:46:53.412Z,23.17
2023-02-11T08:49:24.752Z,16.57
2023-02-11T08:51:55.634Z,19.97
2023-02-11T08:54:23.152Z,20.27
2023-02-11T08:56:52.977Z,24.40
2023-02-11T08:59:21.779Z,20.73
2023-02-11T09:01:50.001Z,20.13
2023-02-11T09:04:17.850Z,15.90
2023-02-11T09:06:48.482Z,18.87
2023-02-11T09:09:17.134Z,18.47
2023-02-11T09:11:45.735Z,15.43
2023-02-11T09:14:22.244Z,21.87
2023-02-11T09:16:51.310Z,15.37
2023-02-11T09:19:19.611Z,14.70
2023-02-11T09:21:47.993Z,16.80
2023-02-11T09:24:15.840Z,16.23
2023-02-11T09:26:43.957Z,13.33
2023-02-11T09:29:11.912Z,13.43
2023-02-11T09:31:39.680Z,15.90
2023-02-11T09:34:07.666Z,16.13
2023-02-11T09:36:40.053Z,14.13
2023-02-11T09:39:16.931Z,14.57
2023-02-11T09:41:54.549Z,15.30
2023-02-11T09:44:27.957Z,25.77
2023-02-11T09:47:03.148Z,22.43
2023-02-11T09:49:45.674Z,15.80
2023-02-11T09:52:24.587Z,12.47
2023-02-11T09:55:02.243Z,15.80
2023-02-11T09:57:40.866Z,15.90
2023-02-11T10:01:01.113Z,16.67
2023-02-11T10:04:05.240Z,16.60
2023-02-11T10:06:57.317Z,15.83
2023-02-11T10:09:39.670Z,15.20
2023-02-11T10:12:53.806Z,13.17
2023-02-11T10:15:48.961Z,13.47
2023-02-11T10:18:42.515Z,16.07
2023-02-11T10:21:31.166Z,23.20
2023-02-11T10:24:03.729Z,14.33
2023-02-11T10:26:34.010Z,15.57
2023-02-11T10:29:21.467Z,17.67
2023-02-11T10:31:50.181Z,18.63
2023-02-11T10:34:18.188Z,15.00
2023-02-11T10:36:46.572Z,17.67
2023-02-11T10:39:22.042Z,16.00
2023-02-11T10:42:05.417Z,16.33
2023-02-11T10:44:58.373Z,15.03
2023-02-11T10:47:33.168Z,13.47
2023-02-11T10:50:03.554Z,19.23
2023-02-11T10:52:33.271Z,18.23
2023-02-11T10:55:13.837Z,18.83
2023-02-11T10:57:53.507Z,23.43
2023-02-11T11:00:38.872Z,15.77
2023-02-11T11:03:31.981Z,15.47
2023-02-11T11:06:03.216Z,14.80
2023-02-11T11:08:52.121Z,14.50
2023-02-11T11:11:25.491Z,19.53
2023-02-11T11:13:52.965Z,16.67
2023-02-11T11:16:33.102Z,15.40
2023-02-11T11:19:09.536Z,20.27
2023-02-11T11:21:54.423Z,16.00
2023-02-11T11:24:46.587Z,17.33
2023-02-11T11:27:23.682Z,14.60
2023-02-11T11:29:55.153Z,16.33
2023-02-11T11:32:34.269Z,15.23
2023-02-11T11:35:08.522Z,16.07
2023-02-11T11:37:37.866Z,30.77
2023-02-11T11:40:17.222Z,13.77
2023-02-11T11:42:45.079Z,13.40
2023-02-11T11:45:22.935Z,13.97
2023-02-11T11:48:13.609Z,12.27
2023-02-11T11:50:47.776Z,16.30
2023-02-11T11:53:41.472Z,27.23
2023-02-11T11:56:23.158Z,11.83
2023-02-11T11:58:51.674Z,12.10
2023-02-11T12:01:48.032Z,13.20
2023-02-11T12:04:43.121Z,9.83
2023-02-11T12:07:40.341Z,12.53
2023-02-11T12:10:36.717Z,26.90
2023-02-11T12:13:17.128Z,13.67
2023-02-11T12:16:00.443Z,11.27
2023-02-11T12:18:52.366Z,10.67
2023-02-11T12:21:32.640Z,12.20
2023-02-11T12:24:36.089Z,10.87
2023-02-11T12:28:15.803Z,10.37
2023-02-11T12:30:58.674Z,8.00
2023-02-11T12:34:16.435Z,11.73
2023-02-11T12:37:42.598Z,10.30
2023-02-11T12:40:54.484Z,10.37
2023-02-11T12:43:36.366Z,22.53
2023-02-11T12:46:31.360Z,15.23
2023-02-11T12:49:27.949Z,9.57
2023-02-11T12:52:21.385Z,15.57
2023-02-11T12:55:17.334Z,16.83
2023-02-11T12:57:47.278Z,16.07
2023-02-11T13:00:30.107Z,14.77
2023-02-11T13:03:11.500Z,14.77
2023-02-11T13:05:53.119Z,11.53
2023-02-11T13:08:41.494Z,11.07
2023-02-11T13:11:16.270Z,10.90
2023-02-11T13:13:49.214Z,15.63
2023-02-11T13:16:36.862Z,13.40
2023-02-11T13:19:13.674Z,9.20
2023-02-11T13:22:05.094Z,46.80
2023-02-11T13:24:59.830Z,11.13
2023-02-11T13:28:05.616Z,9.23
2023-02-11T13:30:36.938Z,9.50
2023-02-11T13:33:19.476Z,9.13
2023-02-11T13:36:10.152Z,9.27
2023-02-11T13:38:39.273Z,7.73
2023-02-11T13:41:30.870Z,9.20
2023-02-11T13:44:06.692Z,7.93
2023-02-11T13:46:59.355Z,7.23
2023-02-11T13:49:40.889Z,14.37
2023-02-11T13:52:39.759Z,9.23
2023-02-11T13:55:22.979Z,6.87
2023-02-11T13:58:08.791Z,7.40
2023-02-11T14:00:40.004Z,7.72
2023-02-11T14:03:31.973Z,7.20
2023-02-11T14:06:27.433Z,14.90
2023-02-11T14:09:22.136Z,10.37
2023-02-11T14:11:57.189Z,10.40
2023-02-11T14:14:36.304Z,8.30
2023-02-11T14:17:12.721Z,7.93
2023-02-11T14:19:50.805Z,11.97
2023-02-11T14:22:41.255Z,9.52
2023-02-11T14:25:22.186Z,8.75
2023-02-11T14:28:08.444Z,12.32
2023-02-11T14:31:14.907Z,9.70
2023-02-11T14:34:28.415Z,11.07
2023-02-11T14:37:09.522Z,13.27
2023-02-11T14:40:09.865Z,12.02
2023-02-11T14:42:39.107Z,11.88
2023-02-11T14:45:11.708Z,11.00
2023-02-11T14:48:06.867Z,10.35
2023-02-11T14:50:48.619Z,7.50
2023-02-11T14:53:23.116Z,18.42
2023-02-11T14:55:55.685Z,16.77
2023-02-11T14:58:32.932Z,8.95
2023-02-11T15:01:06.595Z,15.80
2023-02-11T15:03:35.965Z,10.85
2023-02-11T15:06:36.290Z,8.90
2023-02-11T15:09:28.087Z,17.73
2023-02-11T15:11:58.648Z,17.10
2023-02-11T15:14:33.277Z,6.82
2023-02-11T15:17:08.051Z,13.13
2023-02-11T15:19:48.554Z,30.10
2023-02-11T15:22:22.210Z,25.38
2023-02-11T15:25:20.143Z,17.40
2023-02-11T15:27:53.527Z,13.73
2023-02-11T15:30:25.056Z,36.47
2023-02-11T15:32:58.960Z,37.57
2023-02-11T15:35:41.279Z,28.27
2023-02-11T15:38:14.184Z,26.30
2023-02-11T15:40:51.132Z,30.00
2023-02-11T15:43:18.790Z,43.57
2023-02-11T15:45:52.171Z,26.50
2023-02-11T15:48:28.219Z,23.23
2023-02-11T15:51:23.139Z,43.67
2023-02-11T15:53:59.871Z,34.23
2023-02-11T15:56:42.193Z,44.47
2023-02-11T15:59:56.285Z,36.53
2023-02-11T16:02:34.029Z,37.70
2023-02-11T16:05:09.386Z,40.80
2023-02-11T16:07:50.788Z,41.37
2023-02-11T16:10:32.278Z,43.33
2023-02-11T16:13:08.766Z,52.30
2023-02-11T16:16:02.449Z,45.57
2023-02-11T16:19:03.349Z,60.93
2023-02-11T16:21:39.239Z,52.30
2023-02-11T16:24:22.249Z,51.00
2023-02-11T16:26:54.976Z,60.57
2023-02-11T16:29:33.198Z,69.97
2023-02-11T16:32:25.775Z,88.70
2023-02-11T16:34:58.555Z,171.00
2023-02-11T16:37:26.939Z,287.27
2023-02-11T16:40:01.183Z,279.33
2023-02-11T16:42:30.243Z,262.53
2023-02-11T16:44:59.808Z,263.07
2023-02-11T16:47:31.257Z,248.43
2023-02-11T16:50:03.006Z,228.13
2023-02-11T16:52:31.788Z,247.13
2023-02-11T16:55:02.127Z,249.67
2023-02-11T16:57:31.316Z,222.43
2023-02-11T17:00:00.790Z,227.57
2023-02-11T17:02:35.552Z,235.20
2023-02-11T17:05:08.075Z,248.93
2023-02-11T17:07:38.598Z,285.17
2023-02-11T17:10:27.532Z,271.47
2023-02-11T17:12:56.310Z,279.93
2023-02-11T17:15:23.834Z,341.73
2023-02-11T17:17:59.587Z,343.17
2023-02-11T17:20:33.309Z,411.90
2023-02-11T17:23:01.438Z,440.07
2023-02-11T17:25:29.058Z,422.33
2023-02-11T17:27:56.738Z,417.63
2023-02-11T17:30:25.066Z,404.17
2023-02-11T17:32:52.680Z,430.83
2023-02-11T17:35:20.232Z,455.27
2023-02-11T17:37:47.741Z,454.60
2023-02-11T17:40:16.435Z,440.73
2023-02-11T17:42:45.096Z,458.60
2023-02-11T17:45:14.785Z,380.60
2023-02-11T17:47:43.811Z,310.77
2023-02-11T17:50:15.814Z,236.03
2023-02-11T17:52:43.727Z,177.37
2023-02-11T17:55:11.692Z,128.60
2023-02-11T17:57:42.226Z,126.43
2023-02-11T18:00:13.935Z,142.27
2023-02-11T18:02:41.343Z,134.57
2023-02-11T18:05:10.414Z,149.03
2023-02-11T18:07:38.978Z,144.67
2023-02-11T18:10:09.553Z,142.50
2023-02-11T18:12:37.270Z,135.13
2023-02-11T18:15:05.460Z,134.17
2023-02-11T18:17:34.705Z,142.90
2023-02-11T18:20:05.035Z,121.70
2023-02-11T18:22:39.379Z,108.07
2023-02-11T18:25:10.212Z,110.57
2023-02-11T18:27:38.050Z,93.07
2023-02-11T18:30:07.190Z,91.87
2023-02-11T18:32:36.640Z,79.13
2023-02-11T18:35:04.193Z,83.37
2023-02-11T18:37:34.470Z,88.90
2023-02-11T18:40:06.506Z,83.57
2023-02-11T18:42:35.634Z,110.13
2023-02-11T18:45:06.007Z,118.37
2023-02-11T18:47:41.793Z,111.03
2023-02-11T18:50:13.797Z,135.00
2023-02-11T18:52:43.408Z,128.80
2023-02-11T18:55:11.750Z,74.17
2023-02-11T18:57:39.850Z,106.57
2023-02-11T19:00:10.159Z,325.27
2023-02-11T19:02:42.915Z,412.13
2023-02-11T19:05:11.418Z,476.67
2023-02-11T19:07:40.575Z,474.87
2023-02-11T19:10:09.238Z,461.90
2023-02-11T19:12:39.200Z,451.83
2023-02-11T19:15:11.026Z,331.87
2023-02-11T19:17:44.114Z,323.73
2023-02-11T19:20:13.413Z,128.17
2023-02-11T19:22:41.596Z,224.73
2023-02-11T19:25:13.696Z,207.20
2023-02-11T19:27:41.958Z,86.73
2023-02-11T19:30:13.232Z,125.27
2023-02-11T19:32:44.106Z,125.33
2023-02-11T19:35:13.183Z,133.07
2023-02-11T19:37:42.716Z,149.90
2023-02-11T19:40:12.228Z,139.00
2023-02-11T19:42:41.444Z,138.93
2023-02-11T19:45:10.698Z,170.97
2023-02-11T19:47:39.568Z,100.17
2023-02-11T19:50:13.685Z,113.60
2023-02-11T19:52:41.790Z,124.53
2023-02-11T19:55:10.054Z,130.17
2023-02-11T19:57:37.492Z,123.50
2023-02-11T20:00:07.628Z,96.93
2023-02-11T20:02:40.695Z,88.90
2023-02-11T20:05:09.648Z,119.33
2023-02-11T20:07:38.505Z,108.03
2023-02-11T20:10:08.234Z,156.90
2023-02-11T20:12:37.681Z,229.70
2023-02-11T20:15:08.995Z,208.37
2023-02-11T20:17:37.093Z,124.60
2023-02-11T20:20:04.802Z,85.60
2023-02-11T20:22:55.077Z,87.57
2023-02-11T20:25:22.670Z,106.90
2023-02-11T20:27:54.501Z,92.37
2023-02-11T20:30:23.154Z,97.00
2023-02-11T20:32:50.849Z,233.50
2023-02-11T20:35:18.510Z,114.97
2023-02-11T20:37:49.087Z,110.80
2023-02-11T20:40:16.606Z,101.77
2023-02-11T20:42:45.868Z,50.53
2023-02-11T20:45:41.887Z,32.20
2023-02-11T20:48:10.240Z,34.53
2023-02-11T20:50:38.703Z,27.90
2023-02-11T20:53:11.466Z,35.87
2023-02-11T20:55:46.661Z,39.60
2023-02-11T20:58:16.260Z,32.00
2023-02-11T21:00:45.098Z,34.97
2023-02-11T21:03:13.898Z,36.57
2023-02-11T21:05:44.231Z,143.97
2023-02-11T21:08:11.691Z,73.57
2023-02-11T21:10:39.384Z,70.00
2023-02-11T21:13:06.841Z,53.53
2023-02-11T21:15:35.602Z,66.93
2023-02-11T21:18:03.148Z,122.73
2023-02-11T21:20:30.699Z,103.90
2023-02-11T21:23:01.089Z,88.27
2023-02-11T21:25:30.018Z,84.37
2023-02-11T21:28:00.182Z,76.87
2023-02-11T21:30:27.915Z,77.60
2023-02-11T21:32:55.581Z,56.10
2023-02-11T21:35:28.285Z,76.13
2023-02-11T21:37:55.905Z,56.63
2023-02-11T21:40:30.543Z,56.80
2023-02-11T21:43:00.633Z,81.87
2023-02-11T21:45:28.313Z,119.17
2023-02-11T21:47:55.813Z,148.83
2023-02-11T21:50:23.311Z,91.33
2023-02-11T21:52:51.052Z,93.70
2023-02-11T21:55:18.879Z,121.13
2023-02-11T21:57:46.367Z,212.27
2023-02-11T22:00:14.802Z,269.30
2023-02-11T22:02:43.900Z,201.10
2023-02-11T22:05:11.345Z,183.10
2023-02-11T22:07:39.843Z,195.13
2023-02-11T22:10:08.128Z,172.60
2023-02-11T22:12:35.760Z,179.67
2023-02-11T22:15:03.371Z,141.30
2023-02-11T22:17:30.846Z,133.07
2023-02-11T22:19:58.996Z,144.37
2023-02-11T22:22:26.925Z,137.80
2023-02-11T22:24:54.327Z,129.13
2023-02-11T22:27:22.762Z,166.63
2023-02-11T22:29:50.252Z,172.57
2023-02-11T22:32:17.907Z,149.97
2023-02-11T22:34:45.492Z,101.43
2023-02-11T22:37:13.074Z,73.67
2023-02-11T22:39:42.751Z,51.27
2023-02-11T22:42:10.259Z,62.60
2023-02-11T22:44:38.050Z,82.43
2023-02-11T22:47:06.178Z,67.60
2023-02-11T22:49:34.440Z,91.20
2023-02-11T22:52:01.914Z,100.17
2023-02-11T22:54:29.435Z,108.47
2023-02-11T22:56:56.787Z,124.20
2023-02-11T22:59:24.291Z,160.67
2023-02-11T23:01:51.766Z,211.03
2023-02-11T23:04:19.363Z,157.90
2023-02-11T23:06:50.395Z,268.27
2023-02-11T23:09:17.879Z,255.10
2023-02-11T23:11:45.386Z,176.23
2023-02-11T23:14:14.374Z,109.53
2023-02-11T23:16:42.005Z,104.90
2023-02-11T23:19:10.333Z,96.90
2023-02-11T23:21:40.044Z,74.90
2023-02-11T23:24:15.584Z,95.50
2023-02-11T23:26:44.155Z,92.27
2023-02-11T23:29:12.211Z,229.27
2023-02-11T23:31:43.479Z,277.07
2023-02-11T23:34:11.073Z,88.80
2023-02-11T23:36:38.704Z,154.60
2023-02-11T23:39:06.455Z,104.90
2023-02-11T23:41:33.924Z,99.03
2023-02-11T23:44:01.619Z,98.87
2023-02-11T23:46:31.411Z,97.57
2023-02-11T23:49:00.328Z,96.67
2023-02-11T23:51:27.863Z,68.33
2023-02-11T23:53:56.217Z,41.13
2023-02-11T23:56:27.150Z,39.47
2023-02-11T23:58:59.381Z,45.60
